createdAt,value
2023-04-19T00:01:49.528Z,11.12
2023-04-19T00:04:11.281Z,11.15
2023-04-19T00:06:32.850Z,11.13
2023-04-19T00:08:54.298Z,11.11
2023-04-19T00:11:16.229Z,11.16
2023-04-19T00:13:37.681Z,11.13
2023-04-19T00:15:59.229Z,11.23
2023-04-19T00:18:20.946Z,11.24
2023-04-19T00:20:42.925Z,11.32
2023-04-19T00:23:04.434Z,11.23
2023-04-19T00:25:26.014Z,11.34
2023-04-19T00:27:47.456Z,11.26
2023-04-19T00:30:09.232Z,11.20
2023-04-19T00:32:30.935Z,11.28
2023-04-19T00:34:52.367Z,11.46
2023-04-19T00:37:13.872Z,11.33
2023-04-19T00:39:35.676Z,11.22
2023-04-19T00:42:00.067Z,11.20
2023-04-19T00:44:21.591Z,11.21
2023-04-19T00:46:44.031Z,11.19
2023-04-19T00:49:05.946Z,11.17
2023-04-19T00:51:27.832Z,11.11
2023-04-19T00:53:49.615Z,11.15
2023-04-19T00:56:11.714Z,11.32
2023-04-19T00:58:33.570Z,11.19
2023-04-19T01:00:55.185Z,10.89
2023-04-19T01:03:17.088Z,10.99
2023-04-19T01:05:38.702Z,10.88
2023-04-19T01:08:00.292Z,10.79
2023-04-19T01:10:21.836Z,10.87
2023-04-19T01:12:43.276Z,10.89
2023-04-19T01:15:05.345Z,10.89
2023-04-19T01:17:27.462Z,10.93
2023-04-19T01:19:48.926Z,10.97
2023-04-19T01:22:10.552Z,10.85
2023-04-19T01:24:32.121Z,11.01
2023-04-19T01:26:53.642Z,10.86
2023-04-19T01:29:15.831Z,10.77
2023-04-19T01:31:37.329Z,10.85
2023-04-19T01:33:58.854Z,10.87
2023-04-19T01:36:20.395Z,10.82
2023-04-19T01:38:41.827Z,10.87
2023-04-19T01:41:03.348Z,10.81
2023-04-19T01:43:24.904Z,10.95
2023-04-19T01:45:46.433Z,11.03
2023-04-19T01:48:07.998Z,11.12
2023-04-19T01:50:29.537Z,11.23
2023-04-19T01:52:50.977Z,11.25
2023-04-19T01:55:12.740Z,11.29
2023-04-19T01:57:34.232Z,11.20
2023-04-19T01:59:55.674Z,11.26
2023-04-19T02:02:17.307Z,11.25
2023-04-19T02:04:38.837Z,11.28
2023-04-19T02:07:00.297Z,11.28
2023-04-19T02:09:21.737Z,11.17
2023-04-19T02:11:43.205Z,11.25
2023-04-19T02:14:04.714Z,11.27
2023-04-19T02:16:26.239Z,11.35
2023-04-19T02:18:48.196Z,11.28
2023-04-19T02:21:10.950Z,11.33
2023-04-19T02:23:32.608Z,11.36
2023-04-19T02:25:54.063Z,11.41
2023-04-19T02:28:15.610Z,11.44
2023-04-19T02:30:37.231Z,11.40
2023-04-19T02:32:58.897Z,11.44
2023-04-19T02:35:20.592Z,11.25
2023-04-19T02:37:42.031Z,11.08
2023-04-19T02:40:05.526Z,11.09
2023-04-19T02:42:26.965Z,11.05
2023-04-19T02:44:48.414Z,10.94
2023-04-19T02:47:09.844Z,11.01
2023-04-19T02:49:37.990Z,10.92
2023-04-19T02:51:59.445Z,11.03
2023-04-19T02:54:21.133Z,10.95
2023-04-19T02:56:42.566Z,11.06
2023-04-19T02:59:04.708Z,11.07
2023-04-19T03:01:26.641Z,11.00
2023-04-19T03:03:48.223Z,11.17
2023-04-19T03:06:09.836Z,11.15
2023-04-19T03:08:31.266Z,10.94
2023-04-19T03:10:52.850Z,11.01
2023-04-19T03:13:14.282Z,11.19
2023-04-19T03:15:35.770Z,11.14
2023-04-19T03:17:57.277Z,10.95
2023-04-19T03:20:19.189Z,10.86
2023-04-19T03:22:40.717Z,10.80
2023-04-19T03:25:02.306Z,10.99
2023-04-19T03:27:23.769Z,10.93
2023-04-19T03:29:46.677Z,10.83
2023-04-19T03:32:09.830Z,10.80
2023-04-19T03:34:31.308Z,10.72
2023-04-19T03:36:52.782Z,10.52
2023-04-19T03:39:14.296Z,10.47
2023-04-19T03:41:35.727Z,10.42
2023-04-19T03:43:58.287Z,10.30
2023-04-19T03:46:19.793Z,10.27
2023-04-19T03:48:41.308Z,10.11
2023-04-19T03:51:02.801Z,10.05
2023-04-19T03:53:24.288Z,10.11
2023-04-19T03:55:46.011Z,10.06
2023-04-19T03:58:07.436Z,10.10
2023-04-19T04:00:28.866Z,9.87
2023-04-19T04:02:50.800Z,10.01
2023-04-19T04:05:12.628Z,10.00
2023-04-19T04:07:34.123Z,9.92
2023-04-19T04:09:55.612Z,9.95
2023-04-19T04:12:17.096Z,9.91
2023-04-19T04:14:38.546Z,9.94
2023-04-19T04:16:59.998Z,9.91
2023-04-19T04:19:22.079Z,9.88
2023-04-19T04:21:43.537Z,9.87
2023-04-19T04:24:05.446Z,9.80
2023-04-19T04:26:30.785Z,9.71
2023-04-19T04:28:52.239Z,9.80
2023-04-19T04:31:13.708Z,9.73
2023-04-19T04:33:35.932Z,9.79
2023-04-19T04:35:59.193Z,9.89
2023-04-19T04:38:24.761Z,9.80
2023-04-19T04:40:51.506Z,9.78
2023-04-19T04:43:14.123Z,9.78
2023-04-19T04:45:35.596Z,9.71
2023-04-19T04:47:57.078Z,9.66
2023-04-19T04:50:18.559Z,9.82
2023-04-19T04:52:39.993Z,9.82
2023-04-19T04:55:01.466Z,9.77
2023-04-19T04:57:22.940Z,9.80
2023-04-19T04:59:45.182Z,9.89
2023-04-19T05:02:06.718Z,9.82
2023-04-19T05:04:28.325Z,9.55
2023-04-19T05:06:49.790Z,9.50
2023-04-19T05:09:11.825Z,9.41
2023-04-19T05:11:33.758Z,9.41
2023-04-19T05:13:55.274Z,9.31
2023-04-19T05:16:16.738Z,9.26
2023-04-19T05:18:38.186Z,9.23
2023-04-19T05:20:59.683Z,9.26
2023-04-19T05:23:21.324Z,9.27
2023-04-19T05:25:42.862Z,9.23
2023-04-19T05:28:04.588Z,9.25
2023-04-19T05:30:26.068Z,9.23
2023-04-19T05:32:47.713Z,9.15
2023-04-19T05:35:09.771Z,9.11
2023-04-19T05:37:31.326Z,9.05
2023-04-19T05:39:52.857Z,9.00
2023-04-19T05:42:14.365Z,8.98
2023-04-19T05:44:35.850Z,9.08
2023-04-19T05:46:57.344Z,9.11
2023-04-19T05:49:18.884Z,9.20
2023-04-19T05:51:40.405Z,9.28
2023-04-19T05:54:02.006Z,9.28
2023-04-19T05:56:23.542Z,9.22
2023-04-19T05:58:45.072Z,9.25
2023-04-19T06:01:07.009Z,9.32
2023-04-19T06:03:31.215Z,9.43
2023-04-19T06:05:53.995Z,9.33
2023-04-19T06:08:16.953Z,9.42
2023-04-19T06:10:54.055Z,9.55
2023-04-19T06:13:18.399Z,9.75
2023-04-19T06:15:40.249Z,10.08
2023-04-19T06:18:01.760Z,10.14
2023-04-19T06:20:23.283Z,10.22
2023-04-19T06:22:46.012Z,10.29
2023-04-19T06:25:07.997Z,10.32
2023-04-19T06:27:29.468Z,10.42
2023-04-19T06:29:51.329Z,10.47
2023-04-19T06:32:12.935Z,10.68
2023-04-19T06:34:34.575Z,10.74
2023-04-19T06:36:56.016Z,10.98
2023-04-19T06:39:17.956Z,10.83
2023-04-19T06:41:39.404Z,10.62
2023-04-19T06:44:00.849Z,10.50
2023-04-19T06:46:22.356Z,10.41
2023-04-19T06:48:43.885Z,10.20
2023-04-19T06:51:05.672Z,10.12
2023-04-19T06:53:27.492Z,10.08
2023-04-19T06:55:49.032Z,9.88
2023-04-19T06:58:10.971Z,9.63
2023-04-19T07:00:32.464Z,9.62
2023-04-19T07:02:54.302Z,9.43
2023-04-19T07:05:15.967Z,9.39
2023-04-19T07:07:38.281Z,9.37
2023-04-19T07:09:59.812Z,9.22
2023-04-19T07:12:21.351Z,9.01
2023-04-19T07:14:42.846Z,9.31
2023-04-19T07:17:05.551Z,9.42
2023-04-19T07:19:28.238Z,9.50
2023-04-19T07:21:50.548Z,9.68
2023-04-19T07:24:12.021Z,9.97
2023-04-19T07:26:34.388Z,9.87
2023-04-19T07:28:56.971Z,9.78
2023-04-19T07:31:19.067Z,9.71
2023-04-19T07:33:40.613Z,9.71
2023-04-19T07:36:02.070Z,9.32
2023-04-19T07:38:24.903Z,9.37
2023-04-19T07:40:46.500Z,9.41
2023-04-19T07:43:07.980Z,9.29
2023-04-19T07:45:30.803Z,9.42
2023-04-19T07:47:52.334Z,9.22
2023-04-19T07:50:13.843Z,9.22
2023-04-19T07:52:35.316Z,9.20
2023-04-19T07:54:57.030Z,9.43
2023-04-19T07:57:18.511Z,9.53
2023-04-19T07:59:39.991Z,9.56
2023-04-19T08:02:01.524Z,9.72
2023-04-19T08:04:23.338Z,9.76
2023-04-19T08:06:45.707Z,9.89
2023-04-19T08:09:07.237Z,9.97
2023-04-19T08:11:28.704Z,9.88
2023-04-19T08:14:04.057Z,9.71
2023-04-19T08:17:09.131Z,9.69
2023-04-19T08:19:12.464Z,9.85
2023-04-19T08:21:40.511Z,9.89
2023-04-19T08:24:02.890Z,9.94
2023-04-19T08:26:26.752Z,9.88
2023-04-19T08:28:49.860Z,9.74
2023-04-19T08:31:11.361Z,9.82
2023-04-19T08:33:32.908Z,9.84
2023-04-19T08:35:54.359Z,9.88
2023-04-19T08:38:15.932Z,9.96
2023-04-19T08:40:45.531Z,10.18
2023-04-19T08:43:07.473Z,10.18
2023-04-19T08:45:29.700Z,10.23
2023-04-19T08:48:00.850Z,10.29
2023-04-19T08:50:32.161Z,10.22
2023-04-19T08:53:05.647Z,10.29
2023-04-19T08:56:03.322Z,10.27
2023-04-19T09:00:54.727Z,10.35
2023-04-19T09:03:16.366Z,10.34
2023-04-19T09:05:38.628Z,10.40
2023-04-19T09:08:29.144Z,10.40
2023-04-19T09:11:01.803Z,10.40
2023-04-19T09:13:23.618Z,10.39
2023-04-19T09:15:45.267Z,10.34
2023-04-19T09:18:09.962Z,10.41
2023-04-19T09:20:38.365Z,10.59
2023-04-19T09:23:07.832Z,10.69
2023-04-19T09:25:52.351Z,10.64
2023-04-19T09:28:12.393Z,10.82
2023-04-19T09:30:40.234Z,10.92
2023-04-19T09:33:05.622Z,10.98
2023-04-19T09:35:49.565Z,11.01
2023-04-19T09:38:11.954Z,11.14
2023-04-19T09:40:33.717Z,11.21
2023-04-19T09:43:08.886Z,11.27
2023-04-19T09:45:41.208Z,11.40
2023-04-19T09:48:04.845Z,11.36
2023-04-19T09:50:27.664Z,11.26
2023-04-19T09:52:50.278Z,11.23
2023-04-19T09:55:25.400Z,11.39
2023-04-19T09:57:48.783Z,11.55
2023-04-19T10:00:13.406Z,11.68
2023-04-19T10:02:36.141Z,11.81
2023-04-19T10:05:16.332Z,11.79
2023-04-19T10:07:40.084Z,11.68
2023-04-19T10:10:16.035Z,11.70
2023-04-19T10:13:03.928Z,11.75
2023-04-19T10:15:23.786Z,11.78
2023-04-19T10:17:45.630Z,11.96
2023-04-19T10:20:12.158Z,12.05
2023-04-19T10:22:36.330Z,12.18
2023-04-19T10:25:13.246Z,12.23
2023-04-19T10:27:34.947Z,12.20
2023-04-19T10:30:07.035Z,12.20
2023-04-19T10:32:37.004Z,12.34
2023-04-19T10:35:04.705Z,12.47
2023-04-19T10:37:26.473Z,12.55
2023-04-19T10:39:47.967Z,12.61
2023-04-19T10:42:09.624Z,12.50
2023-04-19T10:44:31.112Z,12.45
2023-04-19T10:46:52.576Z,12.48
2023-04-19T10:49:14.118Z,12.54
2023-04-19T10:51:38.734Z,12.68
2023-04-19T10:54:05.367Z,12.70
2023-04-19T10:56:32.625Z,12.96
2023-04-19T10:59:07.711Z,12.99
2023-04-19T11:01:45.898Z,12.94
2023-04-19T11:04:08.798Z,13.12
2023-04-19T11:06:30.980Z,13.44
2023-04-19T11:08:52.975Z,13.43
2023-04-19T11:11:15.540Z,13.49
2023-04-19T11:13:37.299Z,13.52
2023-04-19T11:15:59.414Z,13.59
2023-04-19T11:18:20.938Z,13.14
2023-04-19T11:20:43.316Z,13.07
2023-04-19T11:23:16.572Z,13.06
2023-04-19T11:25:38.028Z,13.27
2023-04-19T11:28:00.425Z,13.55
2023-04-19T11:30:30.450Z,13.74
2023-04-19T11:32:53.716Z,14.10
2023-04-19T11:35:15.893Z,14.28
2023-04-19T11:37:39.385Z,14.39
2023-04-19T11:40:02.798Z,14.38
2023-04-19T11:42:26.286Z,14.42
2023-04-19T11:44:51.977Z,14.16
2023-04-19T11:47:13.494Z,14.29
2023-04-19T11:49:34.952Z,14.44
2023-04-19T11:52:02.443Z,14.62
2023-04-19T11:54:26.897Z,14.86
2023-04-19T11:57:05.705Z,15.22
2023-04-19T11:59:27.632Z,15.35
2023-04-19T12:01:49.056Z,15.54
2023-04-19T12:04:11.619Z,15.53
2023-04-19T12:06:33.372Z,15.65
2023-04-19T12:08:56.432Z,15.65
2023-04-19T12:11:19.837Z,15.95
2023-04-19T12:13:41.687Z,15.84
2023-04-19T12:16:03.595Z,16.16
2023-04-19T12:18:25.530Z,16.75
2023-04-19T12:20:50.259Z,17.33
2023-04-19T12:23:13.974Z,18.49
2023-04-19T12:25:35.602Z,18.98
2023-04-19T12:27:57.637Z,18.58
2023-04-19T12:30:19.139Z,17.77
2023-04-19T12:32:40.608Z,17.84
2023-04-19T12:35:02.120Z,17.67
2023-04-19T12:37:23.551Z,18.00
2023-04-19T12:39:45.029Z,19.50
2023-04-19T12:42:06.642Z,20.09
2023-04-19T12:44:28.147Z,19.96
2023-04-19T12:46:49.798Z,21.43
2023-04-19T12:49:11.284Z,22.21
2023-04-19T12:51:33.040Z,23.15
2023-04-19T12:53:54.681Z,21.56
2023-04-19T12:56:17.293Z,21.61
2023-04-19T12:58:38.805Z,21.13
2023-04-19T13:01:00.473Z,21.93
2023-04-19T13:03:22.113Z,21.76
2023-04-19T13:05:43.736Z,22.28
2023-04-19T13:08:05.868Z,23.67
2023-04-19T13:10:27.376Z,23.04
2023-04-19T13:12:48.880Z,24.04
2023-04-19T13:15:10.820Z,24.91
2023-04-19T13:17:32.497Z,25.59
2023-04-19T13:19:53.968Z,25.78
2023-04-19T13:22:15.702Z,24.97
2023-04-19T13:24:37.216Z,23.79
2023-04-19T13:26:58.706Z,22.88
2023-04-19T13:29:20.333Z,21.29
2023-04-19T13:31:43.680Z,20.36
2023-04-19T13:34:05.572Z,20.11
2023-04-19T13:36:28.182Z,21.36
2023-04-19T13:38:49.678Z,22.33
2023-04-19T13:41:11.631Z,23.08
2023-04-19T13:43:33.112Z,24.54
2023-04-19T13:45:54.586Z,23.96
2023-04-19T13:48:16.212Z,22.89
2023-04-19T13:50:37.804Z,21.93
2023-04-19T13:52:59.372Z,21.41
2023-04-19T13:55:20.898Z,20.84
2023-04-19T13:57:42.749Z,19.61
2023-04-19T14:00:04.900Z,20.40
2023-04-19T14:02:26.626Z,20.72
2023-04-19T14:04:48.345Z,19.97
2023-04-19T14:07:09.963Z,20.15
2023-04-19T14:09:31.626Z,20.15
2023-04-19T14:11:53.271Z,19.35
2023-04-19T14:14:15.567Z,18.92
2023-04-19T14:16:37.289Z,18.90
2023-04-19T14:18:58.874Z,20.97
2023-04-19T14:21:20.465Z,22.19
2023-04-19T14:23:41.937Z,22.23
2023-04-19T14:26:03.498Z,21.36
2023-04-19T14:28:25.002Z,21.02
2023-04-19T14:30:46.465Z,19.91
2023-04-19T14:33:07.948Z,19.21
2023-04-19T14:35:30.175Z,18.83
2023-04-19T14:37:51.714Z,18.18
2023-04-19T14:40:13.250Z,19.47
2023-04-19T14:42:34.758Z,20.62
2023-04-19T14:44:58.038Z,21.24
2023-04-19T14:47:20.858Z,22.47
2023-04-19T14:49:42.369Z,23.20
2023-04-19T14:52:04.630Z,23.78
2023-04-19T14:54:26.128Z,24.49
2023-04-19T14:56:47.620Z,24.44
2023-04-19T14:59:09.155Z,23.37
2023-04-19T15:01:30.592Z,23.26
2023-04-19T15:03:52.255Z,23.35
2023-04-19T15:06:13.902Z,24.21
2023-04-19T15:08:35.573Z,24.76
2023-04-19T15:10:57.145Z,24.50
2023-04-19T15:13:18.595Z,25.34
2023-04-19T15:15:40.092Z,25.01
2023-04-19T15:18:01.873Z,23.48
2023-04-19T15:20:23.400Z,24.02
2023-04-19T15:22:45.013Z,23.72
2023-04-19T15:25:06.581Z,22.50
2023-04-19T15:27:28.332Z,22.00
2023-04-19T15:29:49.795Z,22.73
2023-04-19T15:32:11.236Z,23.74
2023-04-19T15:34:32.689Z,24.43
2023-04-19T15:36:54.248Z,24.04
2023-04-19T15:39:15.980Z,22.98
2023-04-19T15:41:37.653Z,22.03
2023-04-19T15:43:59.208Z,21.05
2023-04-19T15:46:20.698Z,20.35
2023-04-19T15:48:44.697Z,19.40
2023-04-19T15:51:07.042Z,18.98
2023-04-19T15:53:28.705Z,18.46
2023-04-19T15:55:50.249Z,17.84
2023-04-19T15:58:11.905Z,18.14
2023-04-19T16:00:33.448Z,18.03
2023-04-19T16:02:56.057Z,18.15
2023-04-19T16:05:17.675Z,19.57
2023-04-19T16:07:39.166Z,20.61
2023-04-19T16:10:00.618Z,21.41
2023-04-19T16:12:22.128Z,22.45
2023-04-19T16:14:43.554Z,22.57
2023-04-19T16:17:05.051Z,23.75
2023-04-19T16:19:26.480Z,24.16
2023-04-19T16:21:47.969Z,24.80
2023-04-19T16:24:09.432Z,24.37
2023-04-19T16:26:30.936Z,23.13
2023-04-19T16:28:52.782Z,21.27
2023-04-19T16:31:14.390Z,20.33
2023-04-19T16:33:35.867Z,19.23
2023-04-19T16:35:57.356Z,18.16
2023-04-19T16:38:18.857Z,17.48
2023-04-19T16:40:40.512Z,16.69
2023-04-19T16:43:01.967Z,16.33
2023-04-19T16:45:23.557Z,15.92
2023-04-19T16:47:46.182Z,15.60
2023-04-19T16:50:08.242Z,15.22
2023-04-19T16:52:32.043Z,15.23
2023-04-19T16:54:54.034Z,15.35
2023-04-19T16:57:15.571Z,15.63
2023-04-19T16:59:37.246Z,15.73
2023-04-19T17:02:01.465Z,16.04
2023-04-19T17:04:24.085Z,16.24
2023-04-19T17:06:45.689Z,16.36
2023-04-19T17:09:07.797Z,16.52
2023-04-19T17:11:32.219Z,16.34
2023-04-19T17:13:55.293Z,15.54
2023-04-19T17:16:18.170Z,15.03
2023-04-19T17:18:39.642Z,14.69
2023-04-19T17:21:01.098Z,14.47
2023-04-19T17:23:22.675Z,14.26
2023-04-19T17:25:44.176Z,14.34
2023-04-19T17:28:06.012Z,14.04
2023-04-19T17:30:28.261Z,13.83
2023-04-19T17:32:49.947Z,13.83
2023-04-19T17:35:11.541Z,13.74
2023-04-19T17:37:33.072Z,13.82
2023-04-19T17:39:54.580Z,13.82
2023-04-19T17:42:16.210Z,13.78
2023-04-19T17:44:37.695Z,13.58
2023-04-19T17:46:59.329Z,13.60
2023-04-19T17:49:21.807Z,13.51
2023-04-19T17:51:43.487Z,13.52
2023-04-19T17:54:04.991Z,13.31
2023-04-19T17:56:26.836Z,13.31
2023-04-19T17:58:48.292Z,13.33
2023-04-19T18:01:10.489Z,13.39
2023-04-19T18:03:32.754Z,13.34
2023-04-19T18:05:54.256Z,13.27
2023-04-19T18:08:15.824Z,13.21
2023-04-19T18:10:37.301Z,13.17
2023-04-19T18:12:58.868Z,13.13
2023-04-19T18:15:20.316Z,13.12
2023-04-19T18:17:41.886Z,13.02
2023-04-19T18:20:05.455Z,13.07
2023-04-19T18:22:26.980Z,13.06
2023-04-19T18:24:51.123Z,13.09
2023-04-19T18:27:13.004Z,13.16
2023-04-19T18:29:34.459Z,13.13
2023-04-19T18:31:56.006Z,13.08
2023-04-19T18:34:17.517Z,12.93
2023-04-19T18:36:39.001Z,12.92
2023-04-19T18:39:00.573Z,12.89
2023-04-19T18:41:22.079Z,12.82
2023-04-19T18:43:54.461Z,12.82
2023-04-19T18:46:25.075Z,12.76
2023-04-19T18:48:46.922Z,12.72
2023-04-19T18:51:09.270Z,12.72
2023-04-19T18:53:31.564Z,12.50
2023-04-19T18:55:57.638Z,12.44
2023-04-19T18:58:19.136Z,12.42
2023-04-19T19:00:40.689Z,12.17
2023-04-19T19:03:03.357Z,12.02
2023-04-19T19:05:25.830Z,12.08
2023-04-19T19:07:47.585Z,12.11
2023-04-19T19:10:19.311Z,11.76
2023-04-19T19:12:43.496Z,11.82
2023-04-19T19:15:05.789Z,11.72
2023-04-19T19:17:28.284Z,11.67
2023-04-19T19:19:50.068Z,11.46
2023-04-19T19:22:25.213Z,11.15
2023-04-19T19:24:48.771Z,11.02
2023-04-19T19:27:10.233Z,11.01
2023-04-19T19:29:36.323Z,10.98
2023-04-19T19:31:58.095Z,10.85
2023-04-19T19:34:27.589Z,10.79
2023-04-19T19:36:51.851Z,10.65
2023-04-19T19:39:13.333Z,10.56
2023-04-19T19:43:59.129Z,10.31
2023-04-19T19:46:22.688Z,10.17
2023-04-19T19:48:44.669Z,10.10
2023-04-19T19:51:28.631Z,10.02
2023-04-19T19:53:47.562Z,9.97
2023-04-19T19:56:18.310Z,10.07
2023-04-19T19:58:50.258Z,9.92
2023-04-19T20:01:13.270Z,10.01
2023-04-19T20:03:37.646Z,10.03
2023-04-19T20:05:59.926Z,9.92
2023-04-19T20:08:21.455Z,9.96
2023-04-19T20:10:43.121Z,9.96
2023-04-19T20:13:06.553Z,9.85
2023-04-19T20:15:28.504Z,9.64
2023-04-19T20:17:50.118Z,9.58
2023-04-19T20:20:12.170Z,9.85
2023-04-19T20:22:33.631Z,9.87
2023-04-19T20:24:55.089Z,9.96
2023-04-19T20:27:16.517Z,9.80
2023-04-19T20:29:38.303Z,9.75
2023-04-19T20:31:59.810Z,9.51
2023-04-19T20:34:21.427Z,9.25
2023-04-19T20:36:46.587Z,9.16
2023-04-19T20:39:13.060Z,9.22
2023-04-19T20:41:34.829Z,9.08
2023-04-19T20:43:57.173Z,8.67
2023-04-19T20:46:18.775Z,8.68
2023-04-19T20:48:40.352Z,8.66
2023-04-19T20:51:01.797Z,8.76
2023-04-19T20:53:23.355Z,8.63
2023-04-19T20:55:44.929Z,8.54
2023-04-19T20:58:06.475Z,8.60
2023-04-19T21:00:28.249Z,8.53
2023-04-19T21:02:49.877Z,8.36
2023-04-19T21:05:11.683Z,8.27
2023-04-19T21:07:33.600Z,8.13
2023-04-19T21:09:55.188Z,8.12
2023-04-19T21:12:17.483Z,7.90
2023-04-19T21:14:39.026Z,7.94
2023-04-19T21:17:01.841Z,7.94
2023-04-19T21:19:23.312Z,7.91
2023-04-19T21:21:44.751Z,7.98
2023-04-19T21:24:07.590Z,7.92
2023-04-19T21:26:29.068Z,8.07
2023-04-19T21:28:51.987Z,8.23
2023-04-19T21:31:13.518Z,8.16
2023-04-19T21:33:35.032Z,8.10
2023-04-19T21:35:56.463Z,8.20
2023-04-19T21:38:17.972Z,8.13
2023-04-19T21:40:39.481Z,8.14
2023-04-19T21:43:00.999Z,8.00
2023-04-19T21:45:22.515Z,8.06
2023-04-19T21:47:44.129Z,8.04
2023-04-19T21:50:06.220Z,8.25
2023-04-19T21:52:27.668Z,8.22
2023-04-19T21:54:49.145Z,7.99
2023-04-19T21:57:11.192Z,8.04
2023-04-19T21:59:35.537Z,7.89
2023-04-19T22:01:58.178Z,7.97
2023-04-19T22:04:20.013Z,7.83
2023-04-19T22:06:44.049Z,7.85
2023-04-19T22:09:05.826Z,7.94
2023-04-19T22:11:29.040Z,7.99
2023-04-19T22:13:51.342Z,7.82
2023-04-19T22:16:13.014Z,7.75
2023-04-19T22:18:35.794Z,7.75
2023-04-19T22:20:57.244Z,7.67
2023-04-19T22:23:18.816Z,7.74
2023-04-19T22:25:40.751Z,7.73
2023-04-19T22:28:02.206Z,7.67
2023-04-19T22:30:23.764Z,7.62
2023-04-19T22:32:45.319Z,7.71
2023-04-19T22:35:07.583Z,7.66
2023-04-19T22:37:29.054Z,7.70
2023-04-19T22:39:50.495Z,7.75
2023-04-19T22:42:12.080Z,7.75
2023-04-19T22:44:33.552Z,7.61
2023-04-19T22:46:55.066Z,7.63
2023-04-19T22:49:16.731Z,7.75
2023-04-19T22:51:38.509Z,7.90
2023-04-19T22:53:59.997Z,8.02
2023-04-19T22:56:21.530Z,7.74
2023-04-19T22:58:42.981Z,7.64
2023-04-19T23:01:04.570Z,7.82
2023-04-19T23:03:26.145Z,7.82
2023-04-19T23:05:47.796Z,7.89
2023-04-19T23:08:09.518Z,7.96
2023-04-19T23:10:31.783Z,8.00
2023-04-19T23:12:57.329Z,7.86
2023-04-19T23:15:18.807Z,7.75
2023-04-19T23:17:40.463Z,7.58
2023-04-19T23:20:02.017Z,7.67
2023-04-19T23:22:23.534Z,7.64
2023-04-19T23:24:44.961Z,7.49
2023-04-19T23:27:06.727Z,7.45
2023-04-19T23:29:28.184Z,7.56
2023-04-19T23:31:49.726Z,7.43
2023-04-19T23:34:11.534Z,7.20
2023-04-19T23:36:32.987Z,7.20
2023-04-19T23:38:54.414Z,7.28
2023-04-19T23:41:15.854Z,7.36
2023-04-19T23:43:37.318Z,7.26
2023-04-19T23:45:58.776Z,7.21
2023-04-19T23:48:20.378Z,7.10
2023-04-19T23:50:41.799Z,7.02
2023-04-19T23:53:04.471Z,6.90
2023-04-19T23:55:25.995Z,6.89
2023-04-19T23:57:47.485Z,6.81
